sensor_id;sensor_type;location;lat;lon;timestamp;P1;durP1;ratioP1;P2;durP2;ratioP2
67456;SDS011;54319;52.038;4.640;2023-04-28T00:00:20;6.43;;;3.88;;
67456;SDS011;54319;52.038;4.640;2023-04-28T00:02:47;6.33;;;3.93;;
67456;SDS011;54319;52.038;4.640;2023-04-28T00:05:13;5.90;;;4.32;;
67456;SDS011;54319;52.038;4.640;2023-04-28T00:07:40;5.43;;;3.50;;
67456;SDS011;54319;52.038;4.640;2023-04-28T00:10:08;7.50;;;4.28;;
67456;SDS011;54319;52.038;4.640;2023-04-28T00:12:35;8.52;;;4.63;;
67456;SDS011;54319;52.038;4.640;2023-04-28T00:15:03;5.75;;;3.97;;
67456;SDS011;54319;52.038;4.640;2023-04-28T00:17:30;7.32;;;4.28;;
67456;SDS011;54319;52.038;4.640;2023-04-28T00:19:57;6.63;;;3.63;;
67456;SDS011;54319;52.038;4.640;2023-04-28T00:22:23;11.77;;;4.63;;
67456;SDS011;54319;52.038;4.640;2023-04-28T00:24:50;9.50;;;4.35;;
67456;SDS011;54319;52.038;4.640;2023-04-28T00:27:17;8.23;;;4.40;;
67456;SDS011;54319;52.038;4.640;2023-04-28T00:29:44;6.47;;;4.10;;
67456;SDS011;54319;52.038;4.640;2023-04-28T00:32:12;8.45;;;4.22;;
67456;SDS011;54319;52.038;4.640;2023-04-28T00:34:39;11.13;;;4.30;;
67456;SDS011;54319;52.038;4.640;2023-04-28T00:37:05;12.45;;;5.10;;
67456;SDS011;54319;52.038;4.640;2023-04-28T00:39:32;6.88;;;4.20;;
67456;SDS011;54319;52.038;4.640;2023-04-28T00:41:59;6.93;;;4.35;;
67456;SDS011;54319;52.038;4.640;2023-04-28T00:44:26;7.05;;;4.30;;
67456;SDS011;54319;52.038;4.640;2023-04-28T00:46:52;7.57;;;3.95;;
67456;SDS011;54319;52.038;4.640;2023-04-28T00:49:21;8.93;;;4.53;;
67456;SDS011;54319;52.038;4.640;2023-04-28T00:51:47;7.97;;;4.50;;
67456;SDS011;54319;52.038;4.640;2023-04-28T00:54:14;5.65;;;4.18;;
67456;SDS011;54319;52.038;4.640;2023-04-28T00:56:40;6.30;;;4.40;;
67456;SDS011;54319;52.038;4.640;2023-04-28T00:59:08;6.97;;;4.30;;
67456;SDS011;54319;52.038;4.640;2023-04-28T01:01:35;7.55;;;4.30;;
67456;SDS011;54319;52.038;4.640;2023-04-28T01:04:02;6.07;;;4.40;;
67456;SDS011;54319;52.038;4.640;2023-04-28T01:06:30;8.53;;;4.57;;
67456;SDS011;54319;52.038;4.640;2023-04-28T01:08:57;8.73;;;4.22;;
67456;SDS011;54319;52.038;4.640;2023-04-28T01:11:23;14.35;;;4.45;;
67456;SDS011;54319;52.038;4.640;2023-04-28T01:13:50;8.02;;;4.88;;
67456;SDS011;54319;52.038;4.640;2023-04-28T01:16:17;6.43;;;4.47;;
67456;SDS011;54319;52.038;4.640;2023-04-28T01:18:45;7.13;;;4.57;;
67456;SDS011;54319;52.038;4.640;2023-04-28T01:21:13;7.90;;;4.57;;
67456;SDS011;54319;52.038;4.640;2023-04-28T01:26:11;6.55;;;4.40;;
67456;SDS011;54319;52.038;4.640;2023-04-28T01:28:38;8.98;;;4.50;;
67456;SDS011;54319;52.038;4.640;2023-04-28T01:31:05;7.67;;;4.43;;
67456;SDS011;54319;52.038;4.640;2023-04-28T01:33:32;6.57;;;4.60;;
67456;SDS011;54319;52.038;4.640;2023-04-28T01:35:58;9.93;;;5.00;;
67456;SDS011;54319;52.038;4.640;2023-04-28T01:38:25;11.27;;;4.90;;
67456;SDS011;54319;52.038;4.640;2023-04-28T01:40:54;10.35;;;5.22;;
67456;SDS011;54319;52.038;4.640;2023-04-28T01:43:22;9.43;;;4.82;;
67456;SDS011;54319;52.038;4.640;2023-04-28T01:45:49;6.50;;;4.30;;
67456;SDS011;54319;52.038;4.640;2023-04-28T01:48:16;6.88;;;4.60;;
67456;SDS011;54319;52.038;4.640;2023-04-28T01:50:43;7.93;;;4.80;;
67456;SDS011;54319;52.038;4.640;2023-04-28T01:53:09;7.70;;;4.50;;
67456;SDS011;54319;52.038;4.640;2023-04-28T01:55:36;9.40;;;5.18;;
67456;SDS011;54319;52.038;4.640;2023-04-28T01:58:04;10.77;;;5.00;;
67456;SDS011;54319;52.038;4.640;2023-04-28T02:00:31;8.05;;;4.38;;
67456;SDS011;54319;52.038;4.640;2023-04-28T02:02:57;8.15;;;4.50;;
67456;SDS011;54319;52.038;4.640;2023-04-28T02:05:24;8.00;;;5.00;;
67456;SDS011;54319;52.038;4.640;2023-04-28T02:07:51;6.18;;;4.50;;
67456;SDS011;54319;52.038;4.640;2023-04-28T02:10:17;9.88;;;4.40;;
67456;SDS011;54319;52.038;4.640;2023-04-28T02:12:44;6.73;;;4.70;;
67456;SDS011;54319;52.038;4.640;2023-04-28T02:15:12;6.72;;;4.90;;
67456;SDS011;54319;52.038;4.640;2023-04-28T02:17:39;8.85;;;4.90;;
67456;SDS011;54319;52.038;4.640;2023-04-28T02:20:06;8.20;;;4.82;;
67456;SDS011;54319;52.038;4.640;2023-04-28T02:22:34;9.82;;;5.07;;
67456;SDS011;54319;52.038;4.640;2023-04-28T02:25:02;8.85;;;4.70;;
67456;SDS011;54319;52.038;4.640;2023-04-28T02:27:30;7.38;;;4.45;;
67456;SDS011;54319;52.038;4.640;2023-04-28T02:29:57;8.23;;;4.57;;
67456;SDS011;54319;52.038;4.640;2023-04-28T02:32:25;9.80;;;4.75;;
67456;SDS011;54319;52.038;4.640;2023-04-28T02:34:52;7.93;;;4.70;;
67456;SDS011;54319;52.038;4.640;2023-04-28T02:37:19;7.55;;;4.28;;
67456;SDS011;54319;52.038;4.640;2023-04-28T02:39:46;9.98;;;4.25;;
67456;SDS011;54319;52.038;4.640;2023-04-28T02:42:13;7.18;;;4.90;;
67456;SDS011;54319;52.038;4.640;2023-04-28T02:44:40;6.03;;;4.22;;
67456;SDS011;54319;52.038;4.640;2023-04-28T02:47:06;6.22;;;4.40;;
67456;SDS011;54319;52.038;4.640;2023-04-28T02:49:34;9.95;;;5.60;;
67456;SDS011;54319;52.038;4.640;2023-04-28T02:52:01;7.97;;;4.57;;
67456;SDS011;54319;52.038;4.640;2023-04-28T02:54:27;9.50;;;5.07;;
67456;SDS011;54319;52.038;4.640;2023-04-28T02:56:55;7.53;;;4.57;;
67456;SDS011;54319;52.038;4.640;2023-04-28T03:01:49;8.50;;;4.43;;
67456;SDS011;54319;52.038;4.640;2023-04-28T03:04:17;6.35;;;4.40;;
67456;SDS011;54319;52.038;4.640;2023-04-28T03:06:45;9.82;;;4.57;;
67456;SDS011;54319;52.038;4.640;2023-04-28T03:09:12;6.97;;;4.57;;
67456;SDS011;54319;52.038;4.640;2023-04-28T03:11:38;8.07;;;5.20;;
67456;SDS011;54319;52.038;4.640;2023-04-28T03:14:05;8.77;;;5.18;;
67456;SDS011;54319;52.038;4.640;2023-04-28T03:16:32;8.35;;;4.93;;
67456;SDS011;54319;52.038;4.640;2023-04-28T03:18:58;7.90;;;4.97;;
67456;SDS011;54319;52.038;4.640;2023-04-28T03:21:25;6.75;;;4.47;;
67456;SDS011;54319;52.038;4.640;2023-04-28T03:23:53;6.53;;;4.05;;
67456;SDS011;54319;52.038;4.640;2023-04-28T03:26:20;8.48;;;5.00;;
67456;SDS011;54319;52.038;4.640;2023-04-28T03:28:46;8.43;;;4.75;;
67456;SDS011;54319;52.038;4.640;2023-04-28T03:31:13;9.13;;;4.65;;
67456;SDS011;54319;52.038;4.640;2023-04-28T03:33:39;7.43;;;4.28;;
67456;SDS011;54319;52.038;4.640;2023-04-28T03:36:06;6.47;;;4.53;;
67456;SDS011;54319;52.038;4.640;2023-04-28T03:38:33;9.07;;;4.90;;
67456;SDS011;54319;52.038;4.640;2023-04-28T03:41:01;6.90;;;4.30;;
67456;SDS011;54319;52.038;4.640;2023-04-28T03:43:28;6.65;;;4.30;;
67456;SDS011;54319;52.038;4.640;2023-04-28T03:45:54;10.82;;;4.57;;
67456;SDS011;54319;52.038;4.640;2023-04-28T03:48:21;9.00;;;4.55;;
67456;SDS011;54319;52.038;4.640;2023-04-28T03:50:48;7.47;;;4.55;;
67456;SDS011;54319;52.038;4.640;2023-04-28T03:53:15;7.50;;;4.30;;
67456;SDS011;54319;52.038;4.640;2023-04-28T03:55:41;7.13;;;4.57;;
67456;SDS011;54319;52.038;4.640;2023-04-28T03:58:09;7.68;;;4.72;;
67456;SDS011;54319;52.038;4.640;2023-04-28T04:00:36;7.53;;;4.25;;
67456;SDS011;54319;52.038;4.640;2023-04-28T04:03:03;7.20;;;4.57;;
67456;SDS011;54319;52.038;4.640;2023-04-28T04:05:29;7.47;;;4.78;;
67456;SDS011;54319;52.038;4.640;2023-04-28T04:07:56;8.02;;;4.88;;
67456;SDS011;54319;52.038;4.640;2023-04-28T04:10:23;9.10;;;4.43;;
67456;SDS011;54319;52.038;4.640;2023-04-28T04:12:49;7.65;;;4.68;;
67456;SDS011;54319;52.038;4.640;2023-04-28T04:15:17;10.10;;;4.80;;
67456;SDS011;54319;52.038;4.640;2023-04-28T04:17:44;8.60;;;4.85;;
67456;SDS011;54319;52.038;4.640;2023-04-28T04:20:11;7.18;;;4.95;;
67456;SDS011;54319;52.038;4.640;2023-04-28T04:22:38;6.50;;;4.80;;
67456;SDS011;54319;52.038;4.640;2023-04-28T04:25:05;11.27;;;4.88;;
67456;SDS011;54319;52.038;4.640;2023-04-28T04:27:32;7.35;;;4.50;;
67456;SDS011;54319;52.038;4.640;2023-04-28T04:29:59;9.02;;;4.78;;
67456;SDS011;54319;52.038;4.640;2023-04-28T04:32:27;9.25;;;4.85;;
67456;SDS011;54319;52.038;4.640;2023-04-28T04:34:54;9.40;;;5.03;;
67456;SDS011;54319;52.038;4.640;2023-04-28T04:37:21;8.95;;;5.10;;
67456;SDS011;54319;52.038;4.640;2023-04-28T04:39:48;10.07;;;4.85;;
67456;SDS011;54319;52.038;4.640;2023-04-28T04:42:15;7.25;;;4.63;;
67456;SDS011;54319;52.038;4.640;2023-04-28T04:44:41;10.73;;;5.40;;
67456;SDS011;54319;52.038;4.640;2023-04-28T04:47:08;7.80;;;5.35;;
67456;SDS011;54319;52.038;4.640;2023-04-28T04:49:36;9.15;;;5.05;;
67456;SDS011;54319;52.038;4.640;2023-04-28T04:52:03;11.55;;;5.35;;
67456;SDS011;54319;52.038;4.640;2023-04-28T04:54:30;8.93;;;5.35;;
67456;SDS011;54319;52.038;4.640;2023-04-28T04:56:57;10.27;;;5.47;;
67456;SDS011;54319;52.038;4.640;2023-04-28T04:59:24;9.30;;;5.73;;
67456;SDS011;54319;52.038;4.640;2023-04-28T05:01:51;8.50;;;5.77;;
67456;SDS011;54319;52.038;4.640;2023-04-28T05:04:17;10.50;;;5.65;;
67456;SDS011;54319;52.038;4.640;2023-04-28T05:06:45;12.73;;;5.85;;
67456;SDS011;54319;52.038;4.640;2023-04-28T05:09:12;10.18;;;6.30;;
67456;SDS011;54319;52.038;4.640;2023-04-28T05:11:39;9.00;;;5.77;;
67456;SDS011;54319;52.038;4.640;2023-04-28T05:14:06;10.87;;;6.17;;
67456;SDS011;54319;52.038;4.640;2023-04-28T05:16:32;9.88;;;6.00;;
67456;SDS011;54319;52.038;4.640;2023-04-28T05:18:59;11.75;;;5.82;;
67456;SDS011;54319;52.038;4.640;2023-04-28T05:21:26;11.23;;;6.00;;
67456;SDS011;54319;52.038;4.640;2023-04-28T05:23:54;16.90;;;6.20;;
67456;SDS011;54319;52.038;4.640;2023-04-28T05:26:21;9.95;;;5.85;;
67456;SDS011;54319;52.038;4.640;2023-04-28T05:28:48;10.00;;;5.77;;
67456;SDS011;54319;52.038;4.640;2023-04-28T05:31:14;10.00;;;6.03;;
67456;SDS011;54319;52.038;4.640;2023-04-28T05:33:41;10.23;;;6.50;;
67456;SDS011;54319;52.038;4.640;2023-04-28T05:36:08;9.87;;;6.40;;
67456;SDS011;54319;52.038;4.640;2023-04-28T05:38:35;10.27;;;6.37;;
67456;SDS011;54319;52.038;4.640;2023-04-28T05:41:03;10.67;;;6.93;;
67456;SDS011;54319;52.038;4.640;2023-04-28T05:43:30;10.32;;;6.50;;
67456;SDS011;54319;52.038;4.640;2023-04-28T05:45:56;10.27;;;6.97;;
67456;SDS011;54319;52.038;4.640;2023-04-28T05:48:23;10.88;;;6.93;;
67456;SDS011;54319;52.038;4.640;2023-04-28T05:50:50;12.30;;;7.35;;
67456;SDS011;54319;52.038;4.640;2023-04-28T05:53:16;10.55;;;6.88;;
67456;SDS011;54319;52.038;4.640;2023-04-28T05:55:43;10.10;;;6.90;;
67456;SDS011;54319;52.038;4.640;2023-04-28T05:58:11;14.30;;;7.10;;
67456;SDS011;54319;52.038;4.640;2023-04-28T06:00:38;12.48;;;7.32;;
67456;SDS011;54319;52.038;4.640;2023-04-28T06:03:04;11.80;;;7.22;;
67456;SDS011;54319;52.038;4.640;2023-04-28T06:05:35;11.45;;;7.45;;
67456;SDS011;54319;52.038;4.640;2023-04-28T06:08:05;14.48;;;8.13;;
67456;SDS011;54319;52.038;4.640;2023-04-28T06:10:48;13.27;;;7.15;;
67456;SDS011;54319;52.038;4.640;2023-04-28T06:13:27;12.52;;;7.82;;
67456;SDS011;54319;52.038;4.640;2023-04-28T06:15:54;12.32;;;7.07;;
67456;SDS011;54319;52.038;4.640;2023-04-28T06:18:21;13.03;;;7.37;;
67456;SDS011;54319;52.038;4.640;2023-04-28T06:20:48;11.93;;;7.65;;
67456;SDS011;54319;52.038;4.640;2023-04-28T06:23:15;11.37;;;7.73;;
67456;SDS011;54319;52.038;4.640;2023-04-28T06:25:42;11.68;;;8.10;;
67456;SDS011;54319;52.038;4.640;2023-04-28T06:28:08;15.15;;;7.85;;
67456;SDS011;54319;52.038;4.640;2023-04-28T06:30:38;12.57;;;8.18;;
67456;SDS011;54319;52.038;4.640;2023-04-28T06:33:05;14.05;;;8.57;;
67456;SDS011;54319;52.038;4.640;2023-04-28T06:35:32;13.00;;;7.60;;
67456;SDS011;54319;52.038;4.640;2023-04-28T06:38:00;16.38;;;7.95;;
67456;SDS011;54319;52.038;4.640;2023-04-28T06:40:27;17.33;;;8.57;;
67456;SDS011;54319;52.038;4.640;2023-04-28T06:42:54;14.90;;;8.83;;
67456;SDS011;54319;52.038;4.640;2023-04-28T06:45:20;17.80;;;9.23;;
67456;SDS011;54319;52.038;4.640;2023-04-28T06:47:48;15.50;;;8.55;;
67456;SDS011;54319;52.038;4.640;2023-04-28T06:50:16;16.30;;;9.10;;
67456;SDS011;54319;52.038;4.640;2023-04-28T06:52:43;12.88;;;8.55;;
67456;SDS011;54319;52.038;4.640;2023-04-28T06:55:12;13.75;;;8.90;;
67456;SDS011;54319;52.038;4.640;2023-04-28T06:57:41;12.90;;;8.88;;
67456;SDS011;54319;52.038;4.640;2023-04-28T07:00:08;18.93;;;10.03;;
67456;SDS011;54319;52.038;4.640;2023-04-28T07:05:03;15.65;;;9.10;;
67456;SDS011;54319;52.038;4.640;2023-04-28T07:07:30;15.10;;;9.18;;
67456;SDS011;54319;52.038;4.640;2023-04-28T07:09:57;15.32;;;9.75;;
67456;SDS011;54319;52.038;4.640;2023-04-28T07:12:25;14.27;;;9.75;;
67456;SDS011;54319;52.038;4.640;2023-04-28T07:14:52;19.10;;;9.32;;
67456;SDS011;54319;52.038;4.640;2023-04-28T07:17:19;20.55;;;11.13;;
67456;SDS011;54319;52.038;4.640;2023-04-28T07:19:46;19.80;;;11.27;;
67456;SDS011;54319;52.038;4.640;2023-04-28T07:22:15;17.85;;;11.43;;
67456;SDS011;54319;52.038;4.640;2023-04-28T07:24:42;22.48;;;11.93;;
67456;SDS011;54319;52.038;4.640;2023-04-28T07:27:08;16.90;;;10.97;;
67456;SDS011;54319;52.038;4.640;2023-04-28T07:29:35;17.85;;;11.52;;
67456;SDS011;54319;52.038;4.640;2023-04-28T07:32:02;17.57;;;11.03;;
67456;SDS011;54319;52.038;4.640;2023-04-28T07:34:29;24.77;;;13.13;;
67456;SDS011;54319;52.038;4.640;2023-04-28T07:36:56;19.85;;;12.32;;
67456;SDS011;54319;52.038;4.640;2023-04-28T07:39:25;23.23;;;12.10;;
67456;SDS011;54319;52.038;4.640;2023-04-28T07:41:51;19.40;;;12.73;;
67456;SDS011;54319;52.038;4.640;2023-04-28T07:44:18;24.63;;;13.10;;
67456;SDS011;54319;52.038;4.640;2023-04-28T07:46:45;22.13;;;12.98;;
67456;SDS011;54319;52.038;4.640;2023-04-28T07:49:11;20.73;;;13.45;;
67456;SDS011;54319;52.038;4.640;2023-04-28T07:51:38;25.03;;;13.40;;
67456;SDS011;54319;52.038;4.640;2023-04-28T07:54:04;20.23;;;13.80;;
67456;SDS011;54319;52.038;4.640;2023-04-28T07:56:32;27.75;;;14.80;;
67456;SDS011;54319;52.038;4.640;2023-04-28T07:58:59;24.80;;;14.02;;
67456;SDS011;54319;52.038;4.640;2023-04-28T08:01:26;25.35;;;13.63;;
67456;SDS011;54319;52.038;4.640;2023-04-28T08:03:52;25.00;;;15.00;;
67456;SDS011;54319;52.038;4.640;2023-04-28T08:06:19;23.23;;;13.77;;
67456;SDS011;54319;52.038;4.640;2023-04-28T08:08:46;21.63;;;14.10;;
67456;SDS011;54319;52.038;4.640;2023-04-28T08:11:13;21.17;;;14.18;;
67456;SDS011;54319;52.038;4.640;2023-04-28T08:13:41;24.93;;;13.53;;
67456;SDS011;54319;52.038;4.640;2023-04-28T08:16:08;23.27;;;13.85;;
67456;SDS011;54319;52.038;4.640;2023-04-28T08:18:34;26.25;;;14.25;;
67456;SDS011;54319;52.038;4.640;2023-04-28T08:21:01;26.67;;;13.50;;
67456;SDS011;54319;52.038;4.640;2023-04-28T08:23:27;22.25;;;14.13;;
67456;SDS011;54319;52.038;4.640;2023-04-28T08:25:56;23.15;;;13.48;;
67456;SDS011;54319;52.038;4.640;2023-04-28T08:28:22;25.43;;;14.50;;
67456;SDS011;54319;52.038;4.640;2023-04-28T08:30:53;22.25;;;14.07;;
67456;SDS011;54319;52.038;4.640;2023-04-28T08:33:20;22.88;;;13.77;;
67456;SDS011;54319;52.038;4.640;2023-04-28T08:35:48;24.10;;;14.20;;
67456;SDS011;54319;52.038;4.640;2023-04-28T08:38:15;24.33;;;15.18;;
67456;SDS011;54319;52.038;4.640;2023-04-28T08:40:42;22.77;;;13.98;;
67456;SDS011;54319;52.038;4.640;2023-04-28T08:43:09;26.10;;;14.70;;
67456;SDS011;54319;52.038;4.640;2023-04-28T08:45:39;23.02;;;14.77;;
67456;SDS011;54319;52.038;4.640;2023-04-28T08:48:12;24.27;;;15.20;;
67456;SDS011;54319;52.038;4.640;2023-04-28T08:50:45;34.30;;;14.98;;
67456;SDS011;54319;52.038;4.640;2023-04-28T08:53:15;21.83;;;14.40;;
67456;SDS011;54319;52.038;4.640;2023-04-28T08:55:50;22.33;;;14.10;;
67456;SDS011;54319;52.038;4.640;2023-04-28T08:58:19;22.63;;;14.82;;
67456;SDS011;54319;52.038;4.640;2023-04-28T09:00:48;21.13;;;14.55;;
67456;SDS011;54319;52.038;4.640;2023-04-28T09:03:16;22.10;;;14.27;;
67456;SDS011;54319;52.038;4.640;2023-04-28T09:05:42;21.83;;;14.27;;
67456;SDS011;54319;52.038;4.640;2023-04-28T09:08:09;22.50;;;14.00;;
67456;SDS011;54319;52.038;4.640;2023-04-28T09:10:37;20.00;;;13.77;;
67456;SDS011;54319;52.038;4.640;2023-04-28T09:13:04;21.15;;;13.05;;
67456;SDS011;54319;52.038;4.640;2023-04-28T09:15:34;20.85;;;12.65;;
67456;SDS011;54319;52.038;4.640;2023-04-28T09:20:31;19.67;;;12.48;;
67456;SDS011;54319;52.038;4.640;2023-04-28T09:23:12;18.42;;;12.02;;
67456;SDS011;54319;52.038;4.640;2023-04-28T09:25:40;21.23;;;12.18;;
67456;SDS011;54319;52.038;4.640;2023-04-28T09:28:21;21.02;;;13.52;;
67456;SDS011;54319;52.038;4.640;2023-04-28T09:30:48;17.05;;;11.70;;
67456;SDS011;54319;52.038;4.640;2023-04-28T09:33:14;20.93;;;13.70;;
67456;SDS011;54319;52.038;4.640;2023-04-28T09:35:42;19.77;;;12.93;;
67456;SDS011;54319;52.038;4.640;2023-04-28T09:38:11;21.85;;;13.07;;
67456;SDS011;54319;52.038;4.640;2023-04-28T09:40:51;22.30;;;13.25;;
67456;SDS011;54319;52.038;4.640;2023-04-28T09:43:26;19.80;;;12.68;;
67456;SDS011;54319;52.038;4.640;2023-04-28T09:45:54;21.73;;;12.65;;
67456;SDS011;54319;52.038;4.640;2023-04-28T09:48:28;23.42;;;14.48;;
67456;SDS011;54319;52.038;4.640;2023-04-28T09:50:58;21.77;;;14.13;;
67456;SDS011;54319;52.038;4.640;2023-04-28T09:53:26;20.95;;;14.32;;
67456;SDS011;54319;52.038;4.640;2023-04-28T09:55:54;20.05;;;13.13;;
67456;SDS011;54319;52.038;4.640;2023-04-28T09:58:23;21.65;;;14.02;;
67456;SDS011;54319;52.038;4.640;2023-04-28T10:00:52;21.13;;;14.70;;
67456;SDS011;54319;52.038;4.640;2023-04-28T10:03:20;22.58;;;14.02;;
67456;SDS011;54319;52.038;4.640;2023-04-28T10:05:49;18.95;;;13.10;;
67456;SDS011;54319;52.038;4.640;2023-04-28T10:08:19;17.85;;;12.05;;
67456;SDS011;54319;52.038;4.640;2023-04-28T10:10:47;13.50;;;10.80;;
67456;SDS011;54319;52.038;4.640;2023-04-28T10:13:15;11.98;;;9.35;;
67456;SDS011;54319;52.038;4.640;2023-04-28T10:15:42;11.27;;;7.72;;
67456;SDS011;54319;52.038;4.640;2023-04-28T10:18:09;10.68;;;6.82;;
67456;SDS011;54319;52.038;4.640;2023-04-28T10:20:37;10.77;;;6.63;;
67456;SDS011;54319;52.038;4.640;2023-04-28T10:25:53;8.68;;;5.70;;
67456;SDS011;54319;52.038;4.640;2023-04-28T10:28:22;6.93;;;5.72;;
67456;SDS011;54319;52.038;4.640;2023-04-28T10:33:34;7.78;;;6.35;;
67456;SDS011;54319;52.038;4.640;2023-04-28T10:36:03;9.77;;;6.78;;
67456;SDS011;54319;52.038;4.640;2023-04-28T10:38:31;8.85;;;6.93;;
67456;SDS011;54319;52.038;4.640;2023-04-28T10:41:00;7.68;;;6.10;;
67456;SDS011;54319;52.038;4.640;2023-04-28T10:43:34;8.85;;;6.78;;
67456;SDS011;54319;52.038;4.640;2023-04-28T10:46:06;8.43;;;6.30;;
67456;SDS011;54319;52.038;4.640;2023-04-28T10:59:48;11.38;;;5.85;;
67456;SDS011;54319;52.038;4.640;2023-04-28T11:05:09;9.48;;;5.32;;
67456;SDS011;54319;52.038;4.640;2023-04-28T11:07:37;5.43;;;3.67;;
67456;SDS011;54319;52.038;4.640;2023-04-28T11:10:04;7.17;;;4.17;;
67456;SDS011;54319;52.038;4.640;2023-04-28T11:12:32;5.45;;;3.58;;
67456;SDS011;54319;52.038;4.640;2023-04-28T11:15:09;5.60;;;4.32;;
67456;SDS011;54319;52.038;4.640;2023-04-28T11:17:38;6.10;;;4.40;;
67456;SDS011;54319;52.038;4.640;2023-04-28T11:20:07;5.72;;;3.90;;
67456;SDS011;54319;52.038;4.640;2023-04-28T11:22:39;5.63;;;4.00;;
67456;SDS011;54319;52.038;4.640;2023-04-28T11:25:06;3.65;;;2.58;;
67456;SDS011;54319;52.038;4.640;2023-04-28T11:27:35;2.72;;;1.95;;
67456;SDS011;54319;52.038;4.640;2023-04-28T11:30:01;2.08;;;1.80;;
67456;SDS011;54319;52.038;4.640;2023-04-28T11:32:30;2.00;;;1.80;;
67456;SDS011;54319;52.038;4.640;2023-04-28T11:34:58;2.50;;;1.83;;
67456;SDS011;54319;52.038;4.640;2023-04-28T11:37:25;2.63;;;1.70;;
67456;SDS011;54319;52.038;4.640;2023-04-28T11:39:52;2.78;;;1.70;;
67456;SDS011;54319;52.038;4.640;2023-04-28T11:42:18;2.25;;;1.60;;
67456;SDS011;54319;52.038;4.640;2023-04-28T11:44:50;1.43;;;1.33;;
67456;SDS011;54319;52.038;4.640;2023-04-28T11:47:27;1.60;;;1.50;;
67456;SDS011;54319;52.038;4.640;2023-04-28T11:52:21;1.30;;;1.20;;
67456;SDS011;54319;52.038;4.640;2023-04-28T11:57:18;1.63;;;1.30;;
67456;SDS011;54319;52.038;4.640;2023-04-28T11:59:47;1.45;;;1.10;;
67456;SDS011;54319;52.038;4.640;2023-04-28T12:02:15;1.08;;;0.98;;
67456;SDS011;54319;52.038;4.640;2023-04-28T12:04:51;0.85;;;0.85;;
67456;SDS011;54319;52.038;4.640;2023-04-28T12:07:18;0.80;;;0.80;;
67456;SDS011;54319;52.038;4.640;2023-04-28T12:09:46;0.90;;;0.90;;
67456;SDS011;54319;52.038;4.640;2023-04-28T12:12:14;0.90;;;0.90;;
67456;SDS011;54319;52.038;4.640;2023-04-28T12:14:53;1.05;;;0.90;;
67456;SDS011;54319;52.038;4.640;2023-04-28T12:17:26;1.15;;;0.90;;
67456;SDS011;54319;52.038;4.640;2023-04-28T12:19:54;1.00;;;1.00;;
67456;SDS011;54319;52.038;4.640;2023-04-28T12:22:22;1.05;;;0.95;;
67456;SDS011;54319;52.038;4.640;2023-04-28T12:25:02;1.15;;;1.10;;
67456;SDS011;54319;52.038;4.640;2023-04-28T12:27:30;1.25;;;1.20;;
67456;SDS011;54319;52.038;4.640;2023-04-28T12:29:57;1.40;;;1.30;;
67456;SDS011;54319;52.038;4.640;2023-04-28T12:32:37;2.45;;;1.48;;
67456;SDS011;54319;52.038;4.640;2023-04-28T12:35:05;1.58;;;1.40;;
67456;SDS011;54319;52.038;4.640;2023-04-28T12:37:32;2.08;;;1.77;;
67456;SDS011;54319;52.038;4.640;2023-04-28T12:39:59;2.60;;;2.35;;
67456;SDS011;54319;52.038;4.640;2023-04-28T12:42:31;2.40;;;2.10;;
67456;SDS011;54319;52.038;4.640;2023-04-28T12:44:58;2.95;;;2.53;;
67456;SDS011;54319;52.038;4.640;2023-04-28T12:47:25;3.37;;;2.90;;
67456;SDS011;54319;52.038;4.640;2023-04-28T12:49:53;4.10;;;2.83;;
67456;SDS011;54319;52.038;4.640;2023-04-28T12:52:20;5.03;;;3.42;;
67456;SDS011;54319;52.038;4.640;2023-04-28T12:54:47;4.88;;;3.60;;
67456;SDS011;54319;52.038;4.640;2023-04-28T12:57:14;4.90;;;4.07;;
67456;SDS011;54319;52.038;4.640;2023-04-28T12:59:42;7.93;;;4.45;;
67456;SDS011;54319;52.038;4.640;2023-04-28T13:02:09;8.02;;;4.80;;
67456;SDS011;54319;52.038;4.640;2023-04-28T13:04:36;7.43;;;4.93;;
67456;SDS011;54319;52.038;4.640;2023-04-28T13:07:04;12.40;;;5.63;;
67456;SDS011;54319;52.038;4.640;2023-04-28T13:09:31;10.15;;;6.40;;
67456;SDS011;54319;52.038;4.640;2023-04-28T13:11:59;12.18;;;6.45;;
67456;SDS011;54319;52.038;4.640;2023-04-28T13:14:28;8.52;;;5.97;;
67456;SDS011;54319;52.038;4.640;2023-04-28T13:16:55;9.40;;;6.68;;
67456;SDS011;54319;52.038;4.640;2023-04-28T13:19:23;10.32;;;5.57;;
67456;SDS011;54319;52.038;4.640;2023-04-28T13:21:49;6.30;;;4.78;;
67456;SDS011;54319;52.038;4.640;2023-04-28T13:24:17;8.53;;;4.60;;
67456;SDS011;54319;52.038;4.640;2023-04-28T13:26:44;6.90;;;4.78;;
67456;SDS011;54319;52.038;4.640;2023-04-28T13:29:11;6.73;;;4.47;;
67456;SDS011;54319;52.038;4.640;2023-04-28T13:31:38;9.15;;;5.47;;
67456;SDS011;54319;52.038;4.640;2023-04-28T13:34:05;8.52;;;5.78;;
67456;SDS011;54319;52.038;4.640;2023-04-28T13:36:32;12.20;;;6.55;;
67456;SDS011;54319;52.038;4.640;2023-04-28T13:38:59;12.43;;;7.28;;
67456;SDS011;54319;52.038;4.640;2023-04-28T13:41:27;14.43;;;7.00;;
67456;SDS011;54319;52.038;4.640;2023-04-28T13:43:54;15.00;;;8.00;;
67456;SDS011;54319;52.038;4.640;2023-04-28T13:46:21;14.70;;;7.50;;
67456;SDS011;54319;52.038;4.640;2023-04-28T13:48:48;15.43;;;7.70;;
67456;SDS011;54319;52.038;4.640;2023-04-28T13:51:15;15.15;;;7.35;;
67456;SDS011;54319;52.038;4.640;2023-04-28T13:53:41;16.47;;;8.23;;
67456;SDS011;54319;52.038;4.640;2023-04-28T13:56:08;18.33;;;7.47;;
67456;SDS011;54319;52.038;4.640;2023-04-28T13:58:36;14.23;;;7.33;;
67456;SDS011;54319;52.038;4.640;2023-04-28T14:01:03;11.18;;;6.60;;
67456;SDS011;54319;52.038;4.640;2023-04-28T14:03:30;10.40;;;6.00;;
67456;SDS011;54319;52.038;4.640;2023-04-28T14:05:57;9.98;;;5.63;;
67456;SDS011;54319;52.038;4.640;2023-04-28T14:08:24;10.90;;;5.32;;
67456;SDS011;54319;52.038;4.640;2023-04-28T14:10:51;9.10;;;5.82;;
67456;SDS011;54319;52.038;4.640;2023-04-28T14:13:18;10.88;;;5.47;;
67456;SDS011;54319;52.038;4.640;2023-04-28T14:15:47;7.53;;;4.47;;
67456;SDS011;54319;52.038;4.640;2023-04-28T14:18:14;7.90;;;4.90;;
67456;SDS011;54319;52.038;4.640;2023-04-28T14:20:40;8.55;;;4.93;;
67456;SDS011;54319;52.038;4.640;2023-04-28T14:23:08;10.07;;;5.53;;
67456;SDS011;54319;52.038;4.640;2023-04-28T14:25:34;10.05;;;5.60;;
67456;SDS011;54319;52.038;4.640;2023-04-28T14:28:01;9.80;;;5.65;;
67456;SDS011;54319;52.038;4.640;2023-04-28T14:30:29;10.98;;;6.13;;
67456;SDS011;54319;52.038;4.640;2023-04-28T14:32:57;13.40;;;6.50;;
67456;SDS011;54319;52.038;4.640;2023-04-28T14:35:24;12.35;;;6.25;;
67456;SDS011;54319;52.038;4.640;2023-04-28T14:40:18;14.88;;;6.68;;
67456;SDS011;54319;52.038;4.640;2023-04-28T14:42:45;16.23;;;7.13;;
67456;SDS011;54319;52.038;4.640;2023-04-28T14:45:12;12.73;;;6.90;;
67456;SDS011;54319;52.038;4.640;2023-04-28T14:47:38;13.57;;;6.63;;
67456;SDS011;54319;52.038;4.640;2023-04-28T14:50:08;15.10;;;6.38;;
67456;SDS011;54319;52.038;4.640;2023-04-28T14:52:35;13.50;;;6.22;;
67456;SDS011;54319;52.038;4.640;2023-04-28T14:55:02;11.07;;;6.30;;
67456;SDS011;54319;52.038;4.640;2023-04-28T14:57:29;12.15;;;6.72;;
67456;SDS011;54319;52.038;4.640;2023-04-28T14:59:58;14.05;;;6.13;;
67456;SDS011;54319;52.038;4.640;2023-04-28T15:02:25;13.83;;;6.17;;
67456;SDS011;54319;52.038;4.640;2023-04-28T15:04:53;13.35;;;5.72;;
67456;SDS011;54319;52.038;4.640;2023-04-28T15:07:21;9.93;;;5.78;;
67456;SDS011;54319;52.038;4.640;2023-04-28T15:09:49;11.95;;;6.05;;
67456;SDS011;54319;52.038;4.640;2023-04-28T15:12:15;9.73;;;5.30;;
67456;SDS011;54319;52.038;4.640;2023-04-28T15:14:42;10.88;;;6.05;;
67456;SDS011;54319;52.038;4.640;2023-04-28T15:17:08;10.73;;;5.77;;